createdAt,value
2022-12-22T00:02:23.069Z,96468.00
2022-12-22T00:05:11.224Z,96509.00
2022-12-22T00:07:55.721Z,96502.00
2022-12-22T00:10:41.003Z,96513.00
2022-12-22T00:13:31.426Z,96484.00
2022-12-22T00:16:18.038Z,96480.00
2022-12-22T00:19:02.953Z,96476.00
2022-12-22T00:21:48.990Z,96500.00
2022-12-22T00:24:34.063Z,96455.00
2022-12-22T00:27:19.178Z,96474.00
2022-12-22T00:30:04.212Z,96462.00
2022-12-22T00:32:56.922Z,96473.00
2022-12-22T00:35:44.360Z,96453.00
2022-12-22T00:38:36.302Z,96467.00
2022-12-22T00:41:21.310Z,96455.00
2022-12-22T00:44:06.625Z,96456.00
2022-12-22T00:46:59.579Z,96450.00
2022-12-22T00:49:51.497Z,96439.00
2022-12-22T00:52:40.949Z,96438.00
2022-12-22T00:55:43.404Z,96458.00
2022-12-22T00:58:36.201Z,96452.00
2022-12-22T01:01:21.279Z,96431.00
2022-12-22T01:04:05.961Z,96441.00
2022-12-22T01:06:53.145Z,96429.00
2022-12-22T01:09:39.976Z,96428.00
2022-12-22T01:12:36.299Z,96425.00
2022-12-22T01:15:22.868Z,96408.00
2022-12-22T01:18:07.823Z,96404.00
2022-12-22T01:20:52.307Z,96394.00
2022-12-22T01:23:37.444Z,96386.00
2022-12-22T01:26:26.724Z,96403.00
2022-12-22T01:29:11.118Z,96402.00
2022-12-22T01:31:55.819Z,96399.00
2022-12-22T01:34:40.266Z,96404.00
2022-12-22T01:37:24.924Z,96367.00
2022-12-22T01:40:10.985Z,96368.00
2022-12-22T01:42:57.856Z,96362.00
2022-12-22T01:45:50.839Z,96368.00
2022-12-22T01:48:48.838Z,96380.00
2022-12-22T01:51:46.277Z,96374.00
2022-12-22T01:54:33.592Z,96368.00
2022-12-22T01:57:18.697Z,96377.00
2022-12-22T02:00:04.950Z,96355.00
2022-12-22T02:02:57.275Z,96358.00
2022-12-22T02:05:42.360Z,96353.00
2022-12-22T02:08:44.869Z,96334.00
2022-12-22T02:11:40.827Z,96350.00
2022-12-22T02:15:18.965Z,96361.00
2022-12-22T02:18:22.645Z,96342.00
2022-12-22T02:21:24.146Z,96325.00
2022-12-22T02:24:36.635Z,96333.00
2022-12-22T02:27:22.174Z,96313.00
2022-12-22T02:30:15.529Z,96329.00
2022-12-22T02:33:09.193Z,96299.00
2022-12-22T02:36:47.259Z,96318.00
2022-12-22T02:39:57.994Z,96316.00
2022-12-22T02:43:16.014Z,96305.00
2022-12-22T02:46:43.258Z,96283.00
2022-12-22T02:50:18.806Z,96289.00
2022-12-22T02:53:06.338Z,96270.00
2022-12-22T02:55:51.957Z,96282.00
2022-12-22T02:58:37.348Z,96247.00
2022-12-22T03:01:23.237Z,96276.00
2022-12-22T03:04:08.263Z,96264.00
2022-12-22T03:06:53.090Z,96253.00
2022-12-22T03:09:38.757Z,96219.00
2022-12-22T03:12:24.949Z,96279.00
2022-12-22T03:15:09.400Z,96262.00
2022-12-22T03:17:54.315Z,96271.00
2022-12-22T03:20:39.061Z,96270.00
2022-12-22T03:23:27.513Z,96241.00
2022-12-22T03:25:53.835Z,96254.00
2022-12-22T03:28:27.842Z,96262.00
2022-12-22T03:31:04.834Z,96243.00
2022-12-22T03:33:31.992Z,96230.00
2022-12-22T03:36:01.425Z,96245.00
2022-12-22T03:38:27.846Z,96219.00
2022-12-22T03:40:55.010Z,96201.00
2022-12-22T03:43:39.849Z,96213.00
2022-12-22T03:46:28.124Z,96215.00
2022-12-22T03:49:09.651Z,96176.00
2022-12-22T03:51:42.606Z,96206.00
2022-12-22T03:54:12.003Z,96203.00
2022-12-22T03:56:38.611Z,96196.00
2022-12-22T03:59:06.133Z,96186.00
2022-12-22T04:01:37.813Z,96198.00
2022-12-22T04:04:04.453Z,96141.00
2022-12-22T04:06:30.824Z,96178.00
2022-12-22T04:08:57.324Z,96149.00
2022-12-22T04:11:42.313Z,96172.00
2022-12-22T04:14:08.629Z,96154.00
2022-12-22T04:16:35.336Z,96134.00
2022-12-22T04:19:04.297Z,96114.00
2022-12-22T04:21:30.903Z,96113.00
2022-12-22T04:23:57.137Z,96151.00
2022-12-22T04:26:25.890Z,96162.00
2022-12-22T04:28:53.059Z,96142.00
2022-12-22T04:31:20.935Z,96151.00
2022-12-22T04:33:48.880Z,96125.00
2022-12-22T04:36:15.164Z,96147.00
2022-12-22T04:38:42.378Z,96157.00
2022-12-22T04:41:09.859Z,96153.00
2022-12-22T04:43:36.590Z,96158.00
2022-12-22T04:46:03.058Z,96143.00
2022-12-22T04:48:31.015Z,96135.00
2022-12-22T04:50:59.640Z,96128.00
2022-12-22T04:53:29.242Z,96111.00
2022-12-22T04:56:05.870Z,96133.00
2022-12-22T04:58:33.564Z,96098.00
2022-12-22T05:01:16.796Z,96133.00
2022-12-22T05:03:43.228Z,96123.00
2022-12-22T05:06:11.636Z,96104.00
2022-12-22T05:08:38.434Z,96107.00
2022-12-22T05:11:05.416Z,96104.00
2022-12-22T05:13:32.215Z,96089.00
2022-12-22T05:16:15.977Z,96065.00
2022-12-22T05:18:45.025Z,96084.00
2022-12-22T05:21:18.968Z,96076.00
2022-12-22T05:23:45.916Z,96068.00
2022-12-22T05:26:14.100Z,96058.00
2022-12-22T05:28:43.927Z,96064.00
2022-12-22T05:31:19.237Z,96057.00
2022-12-22T05:33:48.667Z,96026.00
2022-12-22T05:36:15.468Z,96044.00
2022-12-22T05:38:43.732Z,96055.00
2022-12-22T05:41:10.438Z,96053.00
2022-12-22T05:43:37.021Z,96049.00
2022-12-22T05:46:06.139Z,96052.00
2022-12-22T05:48:38.149Z,96022.00
2022-12-22T05:51:07.688Z,96042.00
2022-12-22T05:53:33.869Z,96032.00
2022-12-22T05:56:03.431Z,96039.00
2022-12-22T05:58:29.685Z,96027.00
2022-12-22T06:00:58.174Z,96034.00
2022-12-22T06:03:30.016Z,96038.00
2022-12-22T06:05:58.195Z,96044.00
2022-12-22T06:08:24.888Z,96008.00
2022-12-22T06:10:55.489Z,96034.00
2022-12-22T06:13:22.375Z,96027.00
2022-12-22T06:15:49.418Z,96018.00
2022-12-22T06:18:16.957Z,96009.00
2022-12-22T06:20:50.860Z,95999.00
2022-12-22T06:23:21.071Z,95995.00
2022-12-22T06:26:01.038Z,95994.00
2022-12-22T06:28:28.548Z,95992.00
2022-12-22T06:30:55.396Z,96002.00
2022-12-22T06:33:21.695Z,95970.00
2022-12-22T06:35:52.301Z,95998.00
2022-12-22T06:38:27.470Z,96005.00
2022-12-22T06:40:54.280Z,95985.00
2022-12-22T06:43:20.387Z,96008.00
2022-12-22T06:45:46.576Z,96004.00
2022-12-22T06:48:13.036Z,96017.00
2022-12-22T06:50:39.746Z,96010.00
2022-12-22T06:53:07.409Z,96031.00
2022-12-22T06:55:34.294Z,96019.00
2022-12-22T06:58:00.444Z,96027.00
2022-12-22T07:00:26.848Z,96026.00
2022-12-22T07:02:53.358Z,96049.00
2022-12-22T07:05:20.333Z,96050.00
2022-12-22T07:07:46.515Z,96034.00
2022-12-22T07:10:12.769Z,96054.00
2022-12-22T07:12:39.183Z,96042.00
2022-12-22T07:15:06.319Z,96053.00
2022-12-22T07:17:32.630Z,96058.00
2022-12-22T07:19:59.343Z,96055.00
2022-12-22T07:22:30.463Z,96057.00
2022-12-22T07:24:58.862Z,96058.00
2022-12-22T07:27:25.219Z,96067.00
2022-12-22T07:29:51.373Z,96060.00
2022-12-22T07:32:17.693Z,96072.00
2022-12-22T07:34:44.393Z,96066.00
2022-12-22T07:37:12.866Z,96084.00
2022-12-22T07:39:39.060Z,96078.00
2022-12-22T07:42:23.896Z,96065.00
2022-12-22T07:44:50.078Z,96091.00
2022-12-22T07:47:16.426Z,96095.00
2022-12-22T07:50:01.037Z,96092.00
2022-12-22T07:52:27.244Z,96118.00
2022-12-22T07:54:53.426Z,96109.00
2022-12-22T07:57:19.564Z,96110.00
2022-12-22T07:59:45.773Z,96118.00
2022-12-22T08:02:12.038Z,96116.00
2022-12-22T08:04:38.357Z,96120.00
2022-12-22T08:07:04.671Z,96126.00
2022-12-22T08:09:31.019Z,96119.00
2022-12-22T08:11:57.427Z,96133.00
2022-12-22T08:14:23.759Z,96138.00
2022-12-22T08:16:50.074Z,96145.00
2022-12-22T08:19:18.729Z,96156.00
2022-12-22T08:21:52.137Z,96171.00
2022-12-22T08:24:20.301Z,96161.00
2022-12-22T08:26:55.680Z,96152.00
2022-12-22T08:29:29.739Z,96203.00
2022-12-22T08:31:57.841Z,96171.00
2022-12-22T08:34:25.367Z,96195.00
2022-12-22T08:36:56.419Z,96202.00
2022-12-22T08:39:27.158Z,96197.00
2022-12-22T08:41:55.404Z,96172.00
2022-12-22T08:44:25.715Z,96209.00
2022-12-22T08:46:54.947Z,96200.00
2022-12-22T08:49:21.878Z,96202.00
2022-12-22T08:51:49.190Z,96189.00
2022-12-22T08:54:15.912Z,96212.00
2022-12-22T08:56:43.162Z,96211.00
2022-12-22T08:59:10.318Z,96216.00
2022-12-22T09:01:41.939Z,96223.00
2022-12-22T09:04:08.047Z,96219.00
2022-12-22T09:06:40.447Z,96233.00
2022-12-22T09:09:11.451Z,96246.00
2022-12-22T09:11:39.727Z,96234.00
2022-12-22T09:14:07.385Z,96251.00
2022-12-22T09:16:34.837Z,96250.00
2022-12-22T09:19:02.764Z,96250.00
2022-12-22T09:21:29.504Z,96273.00
2022-12-22T09:23:56.918Z,96253.00
2022-12-22T09:26:26.351Z,96261.00
2022-12-22T09:28:53.053Z,96262.00
2022-12-22T09:31:21.634Z,96267.00
2022-12-22T09:33:48.464Z,96282.00
2022-12-22T09:36:19.185Z,96280.00
2022-12-22T09:38:46.089Z,96285.00
2022-12-22T09:41:30.876Z,96294.00
2022-12-22T09:44:02.647Z,96283.00
2022-12-22T09:46:34.967Z,96298.00
2022-12-22T09:49:02.162Z,96287.00
2022-12-22T09:51:29.320Z,96305.00
2022-12-22T09:53:59.241Z,96305.00
2022-12-22T09:56:28.524Z,96326.00
2022-12-22T09:58:55.233Z,96319.00
2022-12-22T10:01:55.693Z,96346.00
2022-12-22T10:04:56.684Z,96365.00
2022-12-22T10:07:39.563Z,96372.00
2022-12-22T10:10:24.487Z,96367.00
2022-12-22T10:13:00.274Z,96372.00
2022-12-22T10:15:36.693Z,96377.00
2022-12-22T10:18:16.593Z,96390.00
2022-12-22T10:20:47.400Z,96399.00
2022-12-22T10:23:28.540Z,96404.00
2022-12-22T10:29:11.079Z,96406.00
2022-12-22T10:32:03.643Z,96401.00
2022-12-22T10:34:30.773Z,96405.00
2022-12-22T10:37:04.234Z,96397.00
2022-12-22T10:39:34.680Z,96408.00
2022-12-22T10:42:10.169Z,96405.00
2022-12-22T10:44:38.080Z,96412.00
2022-12-22T10:47:25.124Z,96419.00
2022-12-22T10:52:30.992Z,96413.00
2022-12-22T10:55:25.241Z,96432.00
2022-12-22T10:58:13.516Z,96424.00
2022-12-22T11:00:40.897Z,96416.00
2022-12-22T11:03:17.551Z,96425.00
2022-12-22T11:05:48.761Z,96439.00
2022-12-22T11:08:19.948Z,96432.00
2022-12-22T11:10:54.560Z,96436.00
2022-12-22T11:13:58.113Z,96443.00
2022-12-22T11:16:49.604Z,96451.00
2022-12-22T11:19:42.573Z,96468.00
2022-12-22T11:22:43.397Z,96483.00
2022-12-22T11:25:23.650Z,96474.00
2022-12-22T11:28:32.337Z,96490.00
2022-12-22T11:31:38.488Z,96496.00
2022-12-22T11:34:46.900Z,96490.00
2022-12-22T11:37:35.594Z,96502.00
2022-12-22T11:40:41.027Z,96512.00
2022-12-22T11:43:25.475Z,96520.00
2022-12-22T11:46:35.427Z,96511.00
2022-12-22T11:49:16.633Z,96529.00
2022-12-22T11:52:25.101Z,96524.00
2022-12-22T11:55:43.082Z,96528.00
2022-12-22T11:58:43.325Z,96532.00
2022-12-22T12:01:45.852Z,96539.00
2022-12-22T12:04:42.023Z,96548.00
2022-12-22T12:07:38.365Z,96537.00
2022-12-22T12:10:28.255Z,96554.00
2022-12-22T12:13:03.340Z,96499.00
2022-12-22T12:15:37.231Z,96547.00
2022-12-22T12:18:36.704Z,96544.00
2022-12-22T12:21:27.419Z,96550.00
2022-12-22T12:24:14.568Z,96552.00
2022-12-22T12:27:24.405Z,96560.00
2022-12-22T12:33:42.245Z,96572.00
2022-12-22T12:36:20.936Z,96591.00
2022-12-22T12:39:30.373Z,96580.00
2022-12-22T12:42:35.436Z,96585.00
2022-12-22T12:45:01.878Z,96592.00
2022-12-22T12:47:34.798Z,96586.00
2022-12-22T12:50:34.490Z,96586.00
2022-12-22T12:53:08.838Z,96586.00
2022-12-22T12:55:38.022Z,96586.00
2022-12-22T12:58:11.657Z,96608.00
2022-12-22T13:00:44.928Z,96608.00
2022-12-22T13:04:02.282Z,96609.00
2022-12-22T13:06:50.206Z,96599.00
2022-12-22T13:12:50.175Z,96588.00
2022-12-22T13:15:40.918Z,96593.00
2022-12-22T13:18:29.863Z,96599.00
2022-12-22T13:21:50.906Z,96589.00
2022-12-22T13:24:22.725Z,96607.00
2022-12-22T13:26:44.457Z,96616.00
2022-12-22T13:29:28.229Z,96619.00
2022-12-22T13:32:01.712Z,96611.00
2022-12-22T13:35:28.404Z,96598.00
2022-12-22T13:37:42.702Z,96591.00
2022-12-22T13:40:27.629Z,96600.00
2022-12-22T13:43:10.630Z,96598.00
2022-12-22T13:45:51.091Z,96627.00
2022-12-22T13:48:56.900Z,96604.00
2022-12-22T13:51:31.844Z,96632.00
2022-12-22T13:54:25.930Z,96616.00
2022-12-22T13:56:56.108Z,96622.00
2022-12-22T13:59:41.432Z,96626.00
2022-12-22T14:02:07.689Z,96623.00
2022-12-22T14:04:36.200Z,96625.00
2022-12-22T14:07:15.907Z,96597.00
2022-12-22T14:09:49.582Z,96594.00
2022-12-22T14:12:31.703Z,96643.00
2022-12-22T14:15:02.330Z,96648.00
2022-12-22T14:17:39.385Z,96636.00
2022-12-22T14:20:28.384Z,96639.00
2022-12-22T14:23:00.575Z,96665.00
2022-12-22T14:25:43.826Z,96620.00
2022-12-22T14:28:25.546Z,96660.00
2022-12-22T14:30:57.960Z,96657.00
2022-12-22T14:33:30.419Z,96673.00
2022-12-22T14:36:24.451Z,96675.00
2022-12-22T14:38:59.112Z,96640.00
2022-12-22T14:41:40.780Z,96630.00
2022-12-22T14:44:20.211Z,96650.00
2022-12-22T14:47:15.658Z,96669.00
2022-12-22T14:50:13.357Z,96633.00
2022-12-22T14:52:54.624Z,96656.00
2022-12-22T14:55:34.740Z,96653.00
2022-12-22T14:58:09.518Z,96665.00
2022-12-22T15:00:46.044Z,96670.00
2022-12-22T15:03:24.306Z,96654.00
2022-12-22T15:05:52.274Z,96628.00
2022-12-22T15:09:08.175Z,96637.00
2022-12-22T15:11:40.003Z,96640.00
2022-12-22T15:14:21.312Z,96636.00
2022-12-22T15:17:00.958Z,96609.00
2022-12-22T15:19:32.738Z,96647.00
2022-12-22T15:21:59.346Z,96617.00
2022-12-22T15:24:26.063Z,96631.00
2022-12-22T15:26:53.544Z,96629.00
2022-12-22T15:29:20.960Z,96627.00
2022-12-22T15:31:47.430Z,96614.00
2022-12-22T15:34:27.646Z,96641.00
2022-12-22T15:36:54.296Z,96562.00
2022-12-22T15:39:22.718Z,96581.00
2022-12-22T15:41:49.918Z,96590.00
2022-12-22T15:44:16.167Z,96577.00
2022-12-22T15:46:46.594Z,96616.00
2022-12-22T15:49:19.083Z,96621.00
2022-12-22T15:51:54.945Z,96583.00
2022-12-22T15:54:21.873Z,96566.00
2022-12-22T15:56:53.867Z,96576.00
2022-12-22T15:59:25.098Z,96582.00
2022-12-22T16:01:56.537Z,96579.00
2022-12-22T16:04:27.761Z,96606.00
2022-12-22T16:06:54.955Z,96583.00
2022-12-22T16:09:31.754Z,96581.00
2022-12-22T16:11:58.401Z,96588.00
2022-12-22T16:14:24.797Z,96579.00
2022-12-22T16:16:52.505Z,96567.00
2022-12-22T16:19:18.765Z,96599.00
2022-12-22T16:21:48.625Z,96582.00
2022-12-22T16:24:29.909Z,96587.00
2022-12-22T16:26:57.298Z,96593.00
2022-12-22T16:29:25.950Z,96587.00
2022-12-22T16:31:53.138Z,96578.00
2022-12-22T16:34:19.685Z,96591.00
2022-12-22T16:36:46.035Z,96586.00
2022-12-22T16:39:12.523Z,96562.00
2022-12-22T16:41:40.269Z,96565.00
2022-12-22T16:46:59.295Z,96556.00
2022-12-22T16:49:27.036Z,96547.00
2022-12-22T16:51:54.582Z,96546.00
2022-12-22T16:54:21.068Z,96524.00
2022-12-22T16:56:50.397Z,96529.00
2022-12-22T16:59:17.603Z,96545.00
2022-12-22T17:01:51.405Z,96550.00
2022-12-22T17:04:29.817Z,96559.00
2022-12-22T17:06:59.904Z,96559.00
2022-12-22T17:09:42.744Z,96513.00
2022-12-22T17:12:18.591Z,96555.00
2022-12-22T17:14:45.962Z,96533.00
2022-12-22T17:17:16.888Z,96537.00
2022-12-22T17:19:43.816Z,96491.00
2022-12-22T17:22:31.720Z,96512.00
2022-12-22T17:25:03.320Z,96543.00
2022-12-22T17:27:35.608Z,96509.00
2022-12-22T17:30:03.074Z,96526.00
2022-12-22T17:32:29.447Z,96522.00
2022-12-22T17:34:56.044Z,96520.00
2022-12-22T17:37:25.592Z,96518.00
2022-12-22T17:40:00.099Z,96503.00
2022-12-22T17:42:26.483Z,96511.00
2022-12-22T17:44:53.075Z,96494.00
2022-12-22T17:47:25.181Z,96484.00
2022-12-22T17:49:57.894Z,96461.00
2022-12-22T17:52:26.387Z,96498.00
2022-12-22T17:54:53.307Z,96461.00
2022-12-22T17:57:26.949Z,96493.00
2022-12-22T17:59:53.210Z,96472.00
2022-12-22T18:02:22.185Z,96478.00
2022-12-22T18:04:49.094Z,96479.00
2022-12-22T18:07:19.888Z,96484.00
2022-12-22T18:09:49.404Z,96491.00
2022-12-22T18:12:23.926Z,96487.00
2022-12-22T18:14:51.343Z,96467.00
2022-12-22T18:17:35.222Z,96466.00
2022-12-22T18:20:02.457Z,96464.00
2022-12-22T18:22:28.900Z,96464.00
2022-12-22T18:24:56.218Z,96448.00
2022-12-22T18:27:23.444Z,96460.00
2022-12-22T18:29:49.648Z,96457.00
2022-12-22T18:32:25.221Z,96443.00
2022-12-22T18:34:53.688Z,96450.00
2022-12-22T18:37:19.994Z,96433.00
2022-12-22T18:39:46.466Z,96432.00
2022-12-22T18:42:22.926Z,96441.00
2022-12-22T18:44:50.482Z,96441.00
2022-12-22T18:47:17.313Z,96428.00
2022-12-22T18:49:44.355Z,96431.00
2022-12-22T18:52:23.862Z,96425.00
2022-12-22T18:54:50.213Z,96419.00
2022-12-22T18:57:19.023Z,96411.00
2022-12-22T18:59:47.579Z,96428.00
2022-12-22T19:02:28.808Z,96417.00
2022-12-22T19:04:55.841Z,96411.00
2022-12-22T19:07:24.928Z,96414.00
2022-12-22T19:09:52.032Z,96401.00
2022-12-22T19:12:22.379Z,96405.00
2022-12-22T19:14:54.130Z,96396.00
2022-12-22T19:17:27.750Z,96381.00
2022-12-22T19:19:57.814Z,96375.00
2022-12-22T19:22:23.997Z,96395.00
2022-12-22T19:24:50.794Z,96388.00
2022-12-22T19:27:25.717Z,96393.00
2022-12-22T19:30:02.661Z,96406.00
2022-12-22T19:32:39.344Z,96380.00
2022-12-22T19:35:17.815Z,96389.00
2022-12-22T19:37:49.690Z,96384.00
2022-12-22T19:40:19.043Z,96381.00
2022-12-22T19:42:49.638Z,96368.00
2022-12-22T19:45:23.395Z,96357.00
2022-12-22T19:47:51.978Z,96383.00
2022-12-22T19:50:27.560Z,96379.00
2022-12-22T19:52:56.756Z,96370.00
2022-12-22T19:55:27.478Z,96371.00
2022-12-22T19:57:54.766Z,96383.00
2022-12-22T20:00:26.644Z,96376.00
2022-12-22T20:02:56.350Z,96369.00
2022-12-22T20:05:28.339Z,96363.00
2022-12-22T20:07:58.722Z,96352.00
2022-12-22T20:10:31.579Z,96358.00
2022-12-22T20:13:02.545Z,96341.00
2022-12-22T20:15:34.497Z,96358.00
2022-12-22T20:18:02.185Z,96352.00
2022-12-22T20:20:36.588Z,96342.00
2022-12-22T20:23:25.149Z,96353.00
2022-12-22T20:25:57.710Z,96352.00
2022-12-22T20:28:28.583Z,96342.00
2022-12-22T20:30:57.033Z,96349.00
2022-12-22T20:33:25.492Z,96335.00
2022-12-22T20:35:56.103Z,96339.00
2022-12-22T20:38:33.894Z,96337.00
2022-12-22T20:41:01.489Z,96348.00
2022-12-22T20:43:31.764Z,96341.00
2022-12-22T20:46:06.176Z,96329.00
2022-12-22T20:48:55.334Z,96332.00
2022-12-22T20:51:26.499Z,96338.00
2022-12-22T20:53:55.227Z,96339.00
2022-12-22T20:56:26.588Z,96321.00
2022-12-22T20:58:53.479Z,96341.00
2022-12-22T21:01:20.398Z,96332.00
2022-12-22T21:03:46.851Z,96347.00
2022-12-22T21:06:34.648Z,96336.00
2022-12-22T21:09:01.151Z,96338.00
2022-12-22T21:11:29.944Z,96334.00
2022-12-22T21:13:58.132Z,96337.00
2022-12-22T21:16:27.985Z,96332.00
2022-12-22T21:18:54.516Z,96325.00
2022-12-22T21:21:21.234Z,96341.00
2022-12-22T21:23:47.420Z,96337.00
2022-12-22T21:26:29.902Z,96326.00
2022-12-22T21:28:56.592Z,96334.00
2022-12-22T21:31:22.826Z,96326.00
2022-12-22T21:33:49.549Z,96311.00
2022-12-22T21:36:32.784Z,96318.00
2022-12-22T21:39:06.698Z,96323.00
2022-12-22T21:41:51.156Z,96321.00
2022-12-22T21:44:17.460Z,96315.00
2022-12-22T21:46:46.176Z,96314.00
2022-12-22T21:49:20.437Z,96317.00
2022-12-22T21:51:49.208Z,96319.00
2022-12-22T21:54:16.958Z,96304.00
2022-12-22T21:56:43.083Z,96305.00
2022-12-22T21:59:09.305Z,96303.00
2022-12-22T22:01:35.581Z,96307.00
2022-12-22T22:04:01.998Z,96314.00
2022-12-22T22:06:28.281Z,96300.00
2022-12-22T22:08:54.434Z,96302.00
2022-12-22T22:11:23.793Z,96332.00
2022-12-22T22:13:50.349Z,96311.00
2022-12-22T22:16:17.766Z,96296.00
2022-12-22T22:18:46.313Z,96317.00
2022-12-22T22:21:15.787Z,96320.00
2022-12-22T22:23:43.267Z,96321.00
2022-12-22T22:26:10.610Z,96315.00
2022-12-22T22:28:36.986Z,96319.00
2022-12-22T22:31:10.612Z,96312.00
2022-12-22T22:33:37.480Z,96311.00
2022-12-22T22:36:08.583Z,96320.00
2022-12-22T22:38:35.781Z,96316.00
2022-12-22T22:41:02.292Z,96316.00
2022-12-22T22:43:29.775Z,96305.00
2022-12-22T22:45:56.053Z,96323.00
2022-12-22T22:48:23.109Z,96314.00
2022-12-22T22:50:50.200Z,96320.00
2022-12-22T22:53:16.383Z,96313.00
2022-12-22T22:55:42.521Z,96331.00
2022-12-22T22:58:10.549Z,96318.00
2022-12-22T23:00:37.881Z,96322.00
2022-12-22T23:03:04.385Z,96322.00
2022-12-22T23:05:31.383Z,96323.00
2022-12-22T23:07:57.762Z,96308.00
2022-12-22T23:10:24.413Z,96320.00
2022-12-22T23:12:52.162Z,96304.00
2022-12-22T23:15:18.597Z,96314.00
2022-12-22T23:17:46.104Z,96303.00
2022-12-22T23:20:12.560Z,96309.00
2022-12-22T23:22:38.767Z,96297.00
2022-12-22T23:25:05.252Z,96307.00
2022-12-22T23:27:31.458Z,96308.00
2022-12-22T23:29:58.918Z,96279.00
2022-12-22T23:32:28.891Z,96306.00
2022-12-22T23:34:55.074Z,96304.00
2022-12-22T23:37:22.352Z,96297.00
2022-12-22T23:39:49.022Z,96297.00
2022-12-22T23:42:15.174Z,96290.00
2022-12-22T23:44:41.430Z,96268.00
2022-12-22T23:47:08.974Z,96291.00
2022-12-22T23:49:35.312Z,96298.00
2022-12-22T23:52:02.898Z,96279.00
2022-12-22T23:54:30.438Z,96283.00
2022-12-22T23:56:56.678Z,96260.00
2022-12-22T23:59:22.868Z,96281.00
